Hegina — 3ETX2 — position and weather

sailwx.info

Track history (hours):
 
Tides and Currents Weather Stations Pressure Air Temp Water Temp Dewpoint Dewpoint Depression Visibility Wind Speed Wind Dir Waves Ship Positions

Hegina

Last reported at 2014-Jul-16 04:29 UTC. Time now 2014-Jul-23 16:06 UTC.
Position N 40°28' E 026°50'.

Length 138 m; draft 9.2 m.

Type: Cargo ship. MMSI: 372427000.

Date/timePositionNaut miles runAvg speedWind from/ knotsBaromVisibWave heightAir tempDewpointWater temp
2014-Jul-16 04:29N 40°28' E 026°50'370 9.5
2014-Jul-14 13:33N 43°15' E 034°13'1313.0
2014-Jul-14 12:33N 43°21' E 034°29'1513.0
2014-Jul-14 11:24N 43°28' E 034°48'1113.0
2014-Jul-14 10:33N 43°33' E 035°01'4112.6
2014-Jul-14 07:20N 43°52' E 035°51'1012.6
2014-Jul-14 06:33N 43°56' E 036°04'1313.0
2014-Jul-14 05:33N 44°02' E 036°20'1413.1
2014-Jul-14 04:30N 44°09' E 036°37'1612.9
2014-Jul-14 03:16N 44°16' E 036°56'  
Track history (hours):
 
Tides and Currents Weather Stations Pressure Air Temp Water Temp Dewpoint Dewpoint Depression Visibility Wind Speed Wind Dir Waves Ship Positions

Hegina

Last reported at 2014-Jul-16 04:29 UTC. Time now 2014-Jul-23 16:06 UTC.
Position N 40°28' E 026°50'.

Length 138 m; draft 9.2 m.

Type: Cargo ship. MMSI: 372427000.

Date/timePositionNaut miles runAvg speedWind from/ knotsBaromVisibWave heightAir tempDewpointWater temp
2014-Jul-16 04:29N 40°28' E 026°50'370 9.5
2014-Jul-14 13:33N 43°15' E 034°13'1313.0
2014-Jul-14 12:33N 43°21' E 034°29'1513.0
2014-Jul-14 11:24N 43°28' E 034°48'1113.0
2014-Jul-14 10:33N 43°33' E 035°01'4112.6
2014-Jul-14 07:20N 43°52' E 035°51'1012.6
2014-Jul-14 06:33N 43°56' E 036°04'1313.0
2014-Jul-14 05:33N 44°02' E 036°20'1413.1
2014-Jul-14 04:30N 44°09' E 036°37'1612.9
2014-Jul-14 03:16N 44°16' E 036°56'  

Dump ship's entire track history